Home > Products > Valid Products > TAF

000
FTUS44 KBMX 300500
TAFTCL
TAF
KTCL 300533Z 3006/3106 00000KT P6SM BKN150
     FM301500 17010KT P6SM VCTS SCT050CB BKN100
     FM310100 00000KT P6SM BKN050=



000
FTUS44 KBMX 300500
TAFMGM
TAF
KMGM 300533Z 3006/3106 VRB04KT P6SM BKN100
     FM301500 17007KT P6SM SCT050 BKN100
     FM301800 20010KT P6SM VCTS SCT050CB BKN100
     FM310100 VRB03KT P6SM SCT050 BKN200=



000
FTUS44 KBMX 300500
TAFTOI
TAF
KTOI 300533Z 3006/3106 00000KT P6SM BKN100
      TEMPO 3009/3012 4SM BR
     FM301300 17007KT P6SM SCT050 BKN100
     FM301800 20010KT P6SM VCTS SCT050CB BKN100
     FM310100 VRB03KT P6SM SCT050 BKN200=



000
FTUS44 KBMX 300500
TAFANB
TAF
KANB 300533Z 3006/3106 00000KT P6SM BKN150
     FM301500 16007KT P6SM BKN100
     FM301900 20008KT P6SM VCTS SCT050CB BKN150
     FM310100 VRB03KT P6SM BKN050=



000
FTUS44 KBMX 300500
TAFBHM
TAF
KBHM 300533Z 3006/3106 VRB04KT P6SM BKN150
     FM301500 16007KT P6SM BKN100
     FM301800 18010KT P6SM VCTS SCT050CB BKN150
     FM310100 VRB04KT P6SM BKN050=



000
FTUS44 KBMX 300500
TAFEET
TAF
KEET 300533Z 3006/3106 00000KT P6SM BKN150
     FM301500 16007KT P6SM BKN100
     FM301800 18010KT P6SM VCTS SCT050CB BKN150
     FM310100 VRB04KT P6SM BKN050=



000
FTUS44 KBMX 300200 AAA
TAFMGM
TAF AMD
KMGM 300257Z 3003/3024 VRB04KT P6SM BKN250
     FM300315 VRB04KT P6SM VCSH BKN100
     FM301500 17007KT P6SM SCT050 BKN100=



000
FTUS44 KBMX 292300
TAFBHM
TAF
KBHM 292337Z 3000/3024 16008KT P6SM BKN250
     FM300100 VRB04KT P6SM BKN250
     FM301500 16007KT P6SM BKN250
     FM301900 18010KT P6SM VCTS SCT050CB BKN150=



000
FTUS44 KBMX 292300
TAFEET
TAF
KEET 292337Z 3000/3024 16007KT P6SM BKN250
     FM300100 00000KT P6SM BKN250
     FM301500 16007KT P6SM BKN250
     FM301900 18010KT P6SM VCTS SCT050CB BKN150=



000
FTUS44 KBMX 292300
TAFTCL
TAF
KTCL 292337Z 3000/3024 18007KT P6SM BKN250
     FM300100 00000KT 6SM BR BKN250
     FM301500 17010KT P6SM VCTS SCT050CB BKN100=



000
FTUS44 KBMX 292300
TAFTOI
TAF
KTOI 292337Z 3000/3024 00000KT P6SM BKN250
     FM300800 00000KT 4SM BR OVC250
     FM301300 17007KT P6SM SCT050 BKN100=



000
FTUS44 KBMX 292300
TAFANB
TAF
KANB 292337Z 3000/3024 00000KT P6SM BKN250
     FM301500 16007KT P6SM BKN250=



000
FTUS44 KBMX 292300
TAFMGM
TAF
KMGM 292337Z 3000/3024 VRB04KT P6SM BKN250
     FM301500 17007KT P6SM SCT050 BKN100=



000
FTUS44 KBMX 291700
TAFMGM
TAF
KMGM 291720Z 2918/3018 15007KT P6SM SCT070 BKN250
     FM300800 00000KT 6SM BR OVC250
     FM301500 17007KT P6SM VCTS SCT050CB BKN100=



000
FTUS44 KBMX 291700
TAFEET
TAF
KEET 291720Z 2918/3018 16007KT P6SM SCT080 BKN250
     FM300100 00000KT P6SM BKN250
     FM301500 16007KT P6SM BKN250=



000
FTUS44 KBMX 291700
TAFTCL
TAF
KTCL 291720Z 2918/3018 18007KT P6SM SCT070 BKN250
     FM300100 00000KT 6SM BR BKN250
     FM301500 16007KT P6SM VCTS SCT050CB BKN100=



000
FTUS44 KBMX 291700
TAFANB
TAF
KANB 291720Z 2918/3018 16006KT P6SM SCT080 BKN250
     FM300100 00000KT P6SM BKN250
     FM301500 16007KT P6SM BKN250=



000
FTUS44 KBMX 291700
TAFTOI
TAF
KTOI 291720Z 2918/3018 17009KT P6SM SCT070 BKN250
     FM300800 00000KT 4SM BR OVC250
     FM301300 17007KT P6SM VCTS SCT050CB BKN100=



000
FTUS44 KBMX 291700
TAFBHM
TAF
KBHM 291720Z 2918/3018 17009KT P6SM SCT080 BKN250
     FM300000 15004KT P6SM BKN250
     FM301500 16007KT P6SM BKN250=



000
FTUS44 KBMX 291100
TAFTCL
TAF
KTCL 291120Z 2912/3012 00000KT P6SM FEW250
     FM291500 18005KT P6SM SCT070 BKN250=



000
FTUS44 KBMX 291100
TAFMGM
TAF
KMGM 291120Z 2912/3012 00000KT P6SM SCT250
     FM291500 15005KT P6SM SCT070 BKN250=



000
FTUS44 KBMX 291100
TAFANB
TAF
KANB 291120Z 2912/3012 00000KT P6SM FEW250
     FM291500 18006KT P6SM SCT080 BKN250=



000
FTUS44 KBMX 291100
TAFTOI
TAF
KTOI 291120Z 2912/3012 00000KT P6SM SCT250
     FM291500 15005KT P6SM SCT070 BKN250=



000
FTUS44 KBMX 291100
TAFBHM
TAF
KBHM 291120Z 2912/3012 00000KT P6SM FEW250
     FM291500 17006KT P6SM SCT080 BKN250=



000
FTUS44 KBMX 291100
TAFEET
TAF
KEET 291120Z 2912/3012 00000KT P6SM FEW250
     FM291500 16005KT P6SM SCT080 BKN250=



000
FTUS44 KBMX 290500
TAFANB
TAF
KANB 290532Z 2906/3006 00000KT P6SM FEW250
     FM291500 18006KT P6SM FEW050=



000
FTUS44 KBMX 290500
TAFMGM
TAF
KMGM 290532Z 2906/3006 00000KT P6SM SCT250
     FM291500 17005KT P6SM SCT050=



000
FTUS44 KBMX 290500
TAFTCL
TAF
KTCL 290532Z 2906/3006 00000KT P6SM FEW250
     FM291500 18005KT P6SM FEW050=



000
FTUS44 KBMX 290500
TAFBHM
TAF
KBHM 290532Z 2906/3006 00000KT P6SM FEW250
     FM291500 18006KT P6SM FEW050=



000
FTUS44 KBMX 290500
TAFTOI
TAF
KTOI 290532Z 2906/3006 00000KT P6SM SCT250
     FM291500 17005KT P6SM SCT050=



000
FTUS44 KBMX 290500
TAFEET
TAF
KEET 290532Z 2906/3006 00000KT P6SM FEW250
     FM291500 18005KT P6SM FEW050=



000
FTUS44 KBMX 282300
TAFTCL
TAF
KTCL 282327Z 2900/2924 VRB05KT P6SM BKN250
     FM290100 00000KT P6SM FEW250
     FM291500 18005KT P6SM FEW050=



000
FTUS44 KBMX 282300
TAFEET
TAF
KEET 282327Z 2900/2924 VRB04KT P6SM BKN250
     FM290100 00000KT P6SM FEW250
     FM291500 18005KT P6SM FEW050=



000
FTUS44 KBMX 282300
TAFTOI
TAF
KTOI 282327Z 2900/2924 VRB05KT P6SM FEW050 BKN200
     FM290100 00000KT P6SM SCT250
     FM291500 17005KT P6SM SCT050=



000
FTUS44 KBMX 282300
TAFBHM
TAF
KBHM 282327Z 2900/2924 VRB05KT P6SM SCT250
     FM290200 00000KT P6SM FEW250
     FM291500 18006KT P6SM FEW050=



000
FTUS44 KBMX 282300
TAFANB
TAF
KANB 282327Z 2900/2924 VRB04KT P6SM FEW250
     FM290100 00000KT P6SM FEW250
     FM291500 18006KT P6SM FEW050=



000
FTUS44 KBMX 282300
TAFMGM
TAF
KMGM 282327Z 2900/2924 VRB05KT P6SM BKN200
     FM290200 00000KT P6SM SCT250
     FM291500 17005KT P6SM SCT050=



000
FTUS44 KBMX 282000 AAA
TAFBHM
TAF AMD
KBHM 282005Z 2820/2918 24005KT P6SM FEW070 SCT250
     FM290300 00000KT P6SM SKC
     FM291500 18004KT P6SM SKC=



000
FTUS44 KBMX 281700
TAFTCL
TAF
KTCL 281727Z 2818/2918 18005KT P6SM FEW050 SCT250
     FM290100 00000KT P6SM SKC
     FM291500 18004KT P6SM SKC=



000
FTUS44 KBMX 281700
TAFEET
TAF
KEET 281727Z 2818/2918 18005KT P6SM FEW050 SCT250
     FM290100 00000KT P6SM SKC
     FM291500 18004KT P6SM SKC=



000
FTUS44 KBMX 281700
TAFMGM
TAF
KMGM 281727Z 2818/2918 18005KT P6SM FEW050 BKN250
     FM290200 00000KT P6SM SKC
     FM291500 17004KT P6SM SKC=



000
FTUS44 KBMX 281700
TAFANB
TAF
KANB 281727Z 2818/2918 19005KT P6SM FEW050 SCT250
     FM290100 00000KT P6SM SKC
     FM291500 18004KT P6SM SKC=



000
FTUS44 KBMX 281700
TAFBHM
TAF
KBHM 281727Z 2818/2918 16007G12KT P6SM FEW050 SCT250
     FM290300 00000KT P6SM SKC
     FM291500 18004KT P6SM SKC=



000
FTUS44 KBMX 281700
TAFTOI
TAF
KTOI 281727Z 2818/2918 18005KT P6SM FEW050 BKN250
     FM290100 00000KT P6SM SKC
     FM291500 17004KT P6SM SKC=



000
FTUS44 KBMX 281100
TAFTOI
TAF
KTOI 281120Z 2812/2912 00000KT P6SM SCT250
     FM281800 18005KT P6SM FEW050 BKN250=



000
FTUS44 KBMX 281100
TAFMGM
TAF
KMGM 281120Z 2812/2912 00000KT P6SM SCT250
     FM281800 18005KT P6SM FEW050 BKN250=



000
FTUS44 KBMX 281100
TAFTCL
TAF
KTCL 281120Z 2812/2912 00000KT P6SM SCT200
     FM281800 18005KT P6SM FEW050 SCT250=



000
FTUS44 KBMX 281100
TAFANB
TAF
KANB 281120Z 2812/2912 00000KT P6SM FEW200
     FM281800 17005KT P6SM FEW050 SCT250=



000
FTUS44 KBMX 281100
TAFEET
TAF
KEET 281120Z 2812/2912 00000KT P6SM SCT200
     FM281800 18005KT P6SM FEW050 SCT250=



000
FTUS44 KBMX 281100
TAFBHM
TAF
KBHM 281120Z 2812/2912 00000KT P6SM SCT200
     FM281700 16005KT P6SM FEW050 SCT250=



000
FTUS44 KBMX 280500
TAFANB
TAF
KANB 280521Z 2806/2906 00000KT P6SM FEW200
     FM281800 VRB05KT P6SM FEW050=



000
FTUS44 KBMX 280500
TAFBHM
TAF
KBHM 280521Z 2806/2906 00000KT P6SM SCT200
     FM281700 VRB05KT P6SM FEW050=



000
FTUS44 KBMX 280500
TAFTCL
TAF
KTCL 280521Z 2806/2906 00000KT P6SM SCT200
     FM281800 VRB05KT P6SM FEW050=



000
FTUS44 KBMX 280500
TAFEET
TAF
KEET 280521Z 2806/2906 00000KT P6SM SCT200
     FM281800 VRB05KT P6SM FEW050=



000
FTUS44 KBMX 280500
TAFMGM
TAF
KMGM 280521Z 2806/2906 00000KT P6SM FEW200
     FM281800 VRB05KT P6SM FEW050=



000
FTUS44 KBMX 280500
TAFTOI
TAF
KTOI 280521Z 2806/2906 00000KT P6SM FEW200
     FM281800 VRB05KT P6SM FEW050=



000
FTUS44 KBMX 272300
TAFMGM
TAF
KMGM 272328Z 2800/2824 VRB03KT P6SM SKC=



000
FTUS44 KBMX 272300
TAFBHM
TAF
KBHM 272328Z 2800/2824 VRB02KT P6SM SKC=



000
FTUS44 KBMX 272300
TAFTCL
TAF
KTCL 272328Z 2800/2824 02006KT P6SM SCT250
     FM280200 00000KT P6SM SKC=



000
FTUS44 KBMX 272300
TAFEET
TAF
KEET 272328Z 2800/2824 00000KT P6SM SKC=



000
FTUS44 KBMX 272300
TAFTOI
TAF
KTOI 272328Z 2800/2824 02006KT P6SM SKC
     FM280200 00000KT P6SM SKC=



000
FTUS44 KBMX 272300
TAFANB
TAF
KANB 272328Z 2800/2824 VRB03KT P6SM SKC=



000
FTUS44 KBMX 271700
TAFMGM
TAF
KMGM 271731Z 2718/2818 10003KT P6SM FEW050=



000
FTUS44 KBMX 271700
TAFTCL
TAF
KTCL 271731Z 2718/2818 09003KT P6SM FEW050=



000
FTUS44 KBMX 271700
TAFBHM
TAF
KBHM 271731Z 2718/2818 08003KT P6SM FEW060=



000
FTUS44 KBMX 271700
TAFTOI
TAF
KTOI 271731Z 2718/2818 10003KT P6SM FEW050=



000
FTUS44 KBMX 271700
TAFEET
TAF
KEET 271731Z 2718/2818 08003KT P6SM FEW060=



000
FTUS44 KBMX 271700
TAFANB
TAF
KANB 271731Z 2718/2818 08003KT P6SM FEW060=



000
FTUS44 KBMX 271100
TAFMGM
TAF
KMGM 271120Z 2712/2812 05005KT P6SM FEW050=



000
FTUS44 KBMX 271100
TAFANB
TAF
KANB 271120Z 2712/2812 03005KT P6SM FEW050=



000
FTUS44 KBMX 271100
TAFTCL
TAF
KTCL 271120Z 2712/2812 04005KT P6SM FEW050=



000
FTUS44 KBMX 271100
TAFTOI
TAF
KTOI 271120Z 2712/2812 05005KT P6SM FEW050=



000
FTUS44 KBMX 271100
TAFBHM
TAF
KBHM 271120Z 2712/2812 03005KT P6SM FEW050=



000
FTUS44 KBMX 271100
TAFEET
TAF
KEET 271120Z 2712/2812 04005KT P6SM FEW050=



    US Dept of Commerce
    National Oceanic and Atmospheric Administration
    National Weather Service
    1325 East West Highway
    Silver Spring, MD 20910
    Page Author: NWS Internet Services Team
Disclaimer
Information Quality
Credits
Glossary
Privacy Policy
Freedom of Information Act (FOIA)
About Us
Career Opportunities